sensor_id;sensor_type;location;lat;lon;timestamp;temperature;humidity
49579;DHT22;35483;50.828;3.228;2022-07-23T00:01:27;18.60;75.30
49579;DHT22;35483;50.828;3.228;2022-07-23T00:03:56;18.60;75.50
49579;DHT22;35483;50.828;3.228;2022-07-23T00:06:23;18.60;75.40
49579;DHT22;35483;50.828;3.228;2022-07-23T00:08:49;18.60;75.30
49579;DHT22;35483;50.828;3.228;2022-07-23T00:11:17;18.60;75.90
49579;DHT22;35483;50.828;3.228;2022-07-23T00:13:47;18.50;75.50
49579;DHT22;35483;50.828;3.228;2022-07-23T00:16:12;18.50;75.40
49579;DHT22;35483;50.828;3.228;2022-07-23T00:18:38;18.50;75.10
49579;DHT22;35483;50.828;3.228;2022-07-23T00:21:04;18.50;75.20
49579;DHT22;35483;50.828;3.228;2022-07-23T00:23:30;18.40;75.00
49579;DHT22;35483;50.828;3.228;2022-07-23T00:25:57;18.40;75.10
49579;DHT22;35483;50.828;3.228;2022-07-23T00:28:23;18.40;75.20
49579;DHT22;35483;50.828;3.228;2022-07-23T00:30:50;18.40;75.10
49579;DHT22;35483;50.828;3.228;2022-07-23T00:33:17;18.40;75.10
49579;DHT22;35483;50.828;3.228;2022-07-23T00:35:46;18.30;75.20
49579;DHT22;35483;50.828;3.228;2022-07-23T00:38:15;18.30;75.30
49579;DHT22;35483;50.828;3.228;2022-07-23T00:40:41;18.30;75.20
49579;DHT22;35483;50.828;3.228;2022-07-23T00:43:07;18.30;75.90
49579;DHT22;35483;50.828;3.228;2022-07-23T00:45:33;18.20;75.80
49579;DHT22;35483;50.828;3.228;2022-07-23T00:47:59;18.10;75.80
49579;DHT22;35483;50.828;3.228;2022-07-23T00:50:26;18.10;75.60
49579;DHT22;35483;50.828;3.228;2022-07-23T00:52:54;18.10;75.60
49579;DHT22;35483;50.828;3.228;2022-07-23T00:55:20;18.10;75.60
49579;DHT22;35483;50.828;3.228;2022-07-23T00:57:46;18.10;75.90
49579;DHT22;35483;50.828;3.228;2022-07-23T01:00:15;18.10;75.90
49579;DHT22;35483;50.828;3.228;2022-07-23T01:02:42;18.00;76.50
49579;DHT22;35483;50.828;3.228;2022-07-23T01:05:08;18.00;76.50
49579;DHT22;35483;50.828;3.228;2022-07-23T01:07:36;18.00;76.30
49579;DHT22;35483;50.828;3.228;2022-07-23T01:10:03;18.00;76.20
49579;DHT22;35483;50.828;3.228;2022-07-23T01:12:30;18.00;76.30
49579;DHT22;35483;50.828;3.228;2022-07-23T01:14:58;18.00;76.30
49579;DHT22;35483;50.828;3.228;2022-07-23T01:17:24;18.00;76.60
49579;DHT22;35483;50.828;3.228;2022-07-23T01:19:50;17.90;76.60
49579;DHT22;35483;50.828;3.228;2022-07-23T01:22:19;17.90;76.70
49579;DHT22;35483;50.828;3.228;2022-07-23T01:24:54;17.90;76.90
49579;DHT22;35483;50.828;3.228;2022-07-23T01:27:20;17.90;78.90
49579;DHT22;35483;50.828;3.228;2022-07-23T01:29:48;17.80;82.90
49579;DHT22;35483;50.828;3.228;2022-07-23T01:32:14;17.70;77.30
49579;DHT22;35483;50.828;3.228;2022-07-23T01:34:41;17.80;76.70
49579;DHT22;35483;50.828;3.228;2022-07-23T01:37:06;17.80;76.60
49579;DHT22;35483;50.828;3.228;2022-07-23T01:39:32;17.80;76.50
49579;DHT22;35483;50.828;3.228;2022-07-23T01:41:59;17.80;76.60
49579;DHT22;35483;50.828;3.228;2022-07-23T01:44:25;17.80;77.00
49579;DHT22;35483;50.828;3.228;2022-07-23T01:46:51;17.70;77.70
49579;DHT22;35483;50.828;3.228;2022-07-23T01:49:16;17.60;76.90
49579;DHT22;35483;50.828;3.228;2022-07-23T01:51:43;17.60;77.10
49579;DHT22;35483;50.828;3.228;2022-07-23T01:54:29;17.60;76.90
49579;DHT22;35483;50.828;3.228;2022-07-23T01:56:55;17.60;77.00
49579;DHT22;35483;50.828;3.228;2022-07-23T01:59:21;17.60;76.90
49579;DHT22;35483;50.828;3.228;2022-07-23T02:01:47;17.60;76.70
49579;DHT22;35483;50.828;3.228;2022-07-23T02:04:15;17.60;77.00
49579;DHT22;35483;50.828;3.228;2022-07-23T02:06:40;17.60;77.10
49579;DHT22;35483;50.828;3.228;2022-07-23T02:09:06;17.60;76.90
49579;DHT22;35483;50.828;3.228;2022-07-23T02:11:32;17.60;76.80
49579;DHT22;35483;50.828;3.228;2022-07-23T02:14:00;17.60;76.90
49579;DHT22;35483;50.828;3.228;2022-07-23T02:16:26;17.50;77.20
49579;DHT22;35483;50.828;3.228;2022-07-23T02:18:52;17.50;77.30
49579;DHT22;35483;50.828;3.228;2022-07-23T02:21:19;17.50;77.30
49579;DHT22;35483;50.828;3.228;2022-07-23T02:23:45;17.40;77.40
49579;DHT22;35483;50.828;3.228;2022-07-23T02:26:10;17.40;77.60
49579;DHT22;35483;50.828;3.228;2022-07-23T02:28:37;17.40;77.60
49579;DHT22;35483;50.828;3.228;2022-07-23T02:31:03;17.40;77.60
49579;DHT22;35483;50.828;3.228;2022-07-23T02:33:29;17.30;77.70
49579;DHT22;35483;50.828;3.228;2022-07-23T02:35:55;17.40;77.60
49579;DHT22;35483;50.828;3.228;2022-07-23T02:38:21;17.40;77.20
49579;DHT22;35483;50.828;3.228;2022-07-23T02:40:47;17.40;77.00
49579;DHT22;35483;50.828;3.228;2022-07-23T02:43:12;17.40;77.10
49579;DHT22;35483;50.828;3.228;2022-07-23T02:45:39;17.50;77.40
49579;DHT22;35483;50.828;3.228;2022-07-23T02:48:06;17.40;77.40
49579;DHT22;35483;50.828;3.228;2022-07-23T02:50:32;17.40;77.40
49579;DHT22;35483;50.828;3.228;2022-07-23T02:52:59;17.30;77.30
49579;DHT22;35483;50.828;3.228;2022-07-23T02:55:26;17.40;77.30
49579;DHT22;35483;50.828;3.228;2022-07-23T02:57:51;17.40;77.60
49579;DHT22;35483;50.828;3.228;2022-07-23T03:00:18;17.30;77.50
49579;DHT22;35483;50.828;3.228;2022-07-23T03:02:43;17.30;77.80
49579;DHT22;35483;50.828;3.228;2022-07-23T03:05:09;17.20;77.80
49579;DHT22;35483;50.828;3.228;2022-07-23T03:07:35;17.10;77.70
49579;DHT22;35483;50.828;3.228;2022-07-23T03:10:01;17.10;77.60
49579;DHT22;35483;50.828;3.228;2022-07-23T03:12:27;17.20;77.40
49579;DHT22;35483;50.828;3.228;2022-07-23T03:14:52;17.20;77.50
49579;DHT22;35483;50.828;3.228;2022-07-23T03:17:21;17.20;77.40
49579;DHT22;35483;50.828;3.228;2022-07-23T03:19:48;17.20;77.30
49579;DHT22;35483;50.828;3.228;2022-07-23T03:22:14;17.20;77.40
49579;DHT22;35483;50.828;3.228;2022-07-23T03:24:39;17.20;77.30
49579;DHT22;35483;50.828;3.228;2022-07-23T03:27:25;17.20;77.40
49579;DHT22;35483;50.828;3.228;2022-07-23T03:29:52;17.20;77.40
49579;DHT22;35483;50.828;3.228;2022-07-23T03:32:18;17.20;77.50
49579;DHT22;35483;50.828;3.228;2022-07-23T03:34:45;17.20;77.50
49579;DHT22;35483;50.828;3.228;2022-07-23T03:37:11;17.20;77.30
49579;DHT22;35483;50.828;3.228;2022-07-23T03:39:37;17.20;77.40
49579;DHT22;35483;50.828;3.228;2022-07-23T03:42:03;17.30;77.70
49579;DHT22;35483;50.828;3.228;2022-07-23T03:44:29;17.30;77.70
49579;DHT22;35483;50.828;3.228;2022-07-23T03:46:56;17.30;77.50
49579;DHT22;35483;50.828;3.228;2022-07-23T03:49:23;17.40;77.50
49579;DHT22;35483;50.828;3.228;2022-07-23T03:51:49;17.50;77.70
49579;DHT22;35483;50.828;3.228;2022-07-23T03:54:16;17.50;77.70
49579;DHT22;35483;50.828;3.228;2022-07-23T03:56:42;17.50;77.70
49579;DHT22;35483;50.828;3.228;2022-07-23T03:59:09;17.60;77.50
49579;DHT22;35483;50.828;3.228;2022-07-23T04:01:35;17.60;77.50
49579;DHT22;35483;50.828;3.228;2022-07-23T04:04:01;17.70;77.40
49579;DHT22;35483;50.828;3.228;2022-07-23T04:06:28;17.70;77.50
49579;DHT22;35483;50.828;3.228;2022-07-23T04:08:54;17.70;77.60
49579;DHT22;35483;50.828;3.228;2022-07-23T04:11:20;17.70;77.60
49579;DHT22;35483;50.828;3.228;2022-07-23T04:13:46;17.60;77.90
49579;DHT22;35483;50.828;3.228;2022-07-23T04:16:11;17.60;77.80
49579;DHT22;35483;50.828;3.228;2022-07-23T04:18:39;17.50;77.70
49579;DHT22;35483;50.828;3.228;2022-07-23T04:21:05;17.50;78.10
49579;DHT22;35483;50.828;3.228;2022-07-23T04:23:30;17.40;77.70
49579;DHT22;35483;50.828;3.228;2022-07-23T04:25:56;17.40;77.70
49579;DHT22;35483;50.828;3.228;2022-07-23T04:28:23;17.40;77.90
49579;DHT22;35483;50.828;3.228;2022-07-23T04:30:49;17.40;78.10
49579;DHT22;35483;50.828;3.228;2022-07-23T04:33:16;17.40;77.90
49579;DHT22;35483;50.828;3.228;2022-07-23T04:35:42;17.40;77.70
49579;DHT22;35483;50.828;3.228;2022-07-23T04:38:09;17.50;77.80
49579;DHT22;35483;50.828;3.228;2022-07-23T04:40:35;17.50;77.50
49579;DHT22;35483;50.828;3.228;2022-07-23T04:43:01;17.50;77.80
49579;DHT22;35483;50.828;3.228;2022-07-23T04:45:27;17.60;77.50
49579;DHT22;35483;50.828;3.228;2022-07-23T04:47:53;17.60;77.40
49579;DHT22;35483;50.828;3.228;2022-07-23T04:50:19;17.60;77.90
49579;DHT22;35483;50.828;3.228;2022-07-23T04:52:50;17.70;77.70
49579;DHT22;35483;50.828;3.228;2022-07-23T04:55:16;17.80;78.10
49579;DHT22;35483;50.828;3.228;2022-07-23T04:57:41;17.80;77.20
49579;DHT22;35483;50.828;3.228;2022-07-23T05:00:08;17.90;77.20
49579;DHT22;35483;50.828;3.228;2022-07-23T05:02:35;18.00;77.20
49579;DHT22;35483;50.828;3.228;2022-07-23T05:05:01;18.00;77.30
49579;DHT22;35483;50.828;3.228;2022-07-23T05:07:27;18.00;77.40
49579;DHT22;35483;50.828;3.228;2022-07-23T05:09:53;18.00;77.40
49579;DHT22;35483;50.828;3.228;2022-07-23T05:12:18;18.00;78.30
49579;DHT22;35483;50.828;3.228;2022-07-23T05:14:46;18.10;77.70
49579;DHT22;35483;50.828;3.228;2022-07-23T05:17:11;18.10;77.50
49579;DHT22;35483;50.828;3.228;2022-07-23T05:19:39;18.20;77.40
49579;DHT22;35483;50.828;3.228;2022-07-23T05:22:07;18.20;77.40
49579;DHT22;35483;50.828;3.228;2022-07-23T05:24:33;18.40;77.50
49579;DHT22;35483;50.828;3.228;2022-07-23T05:27:00;18.40;77.20
49579;DHT22;35483;50.828;3.228;2022-07-23T05:29:27;18.40;77.30
49579;DHT22;35483;50.828;3.228;2022-07-23T05:31:52;18.50;77.40
49579;DHT22;35483;50.828;3.228;2022-07-23T05:34:18;18.50;77.20
49579;DHT22;35483;50.828;3.228;2022-07-23T05:36:44;18.60;77.30
49579;DHT22;35483;50.828;3.228;2022-07-23T05:39:12;18.70;77.30
49579;DHT22;35483;50.828;3.228;2022-07-23T05:41:37;18.70;77.40
49579;DHT22;35483;50.828;3.228;2022-07-23T05:44:06;18.80;77.20
49579;DHT22;35483;50.828;3.228;2022-07-23T05:46:35;18.90;77.70
49579;DHT22;35483;50.828;3.228;2022-07-23T05:49:01;19.00;77.70
49579;DHT22;35483;50.828;3.228;2022-07-23T05:51:26;19.00;77.00
49579;DHT22;35483;50.828;3.228;2022-07-23T05:53:52;19.20;77.00
49579;DHT22;35483;50.828;3.228;2022-07-23T05:56:18;19.30;77.00
49579;DHT22;35483;50.828;3.228;2022-07-23T05:58:44;19.40;76.80
49579;DHT22;35483;50.828;3.228;2022-07-23T06:01:11;19.60;76.80
49579;DHT22;35483;50.828;3.228;2022-07-23T06:03:38;19.70;76.70
49579;DHT22;35483;50.828;3.228;2022-07-23T06:06:05;19.80;76.50
49579;DHT22;35483;50.828;3.228;2022-07-23T06:08:46;19.90;76.10
49579;DHT22;35483;50.828;3.228;2022-07-23T06:11:11;20.10;78.60
49579;DHT22;35483;50.828;3.228;2022-07-23T06:13:39;20.20;75.50
49579;DHT22;35483;50.828;3.228;2022-07-23T06:16:05;20.40;75.40
49579;DHT22;35483;50.828;3.228;2022-07-23T06:18:30;20.50;75.10
49579;DHT22;35483;50.828;3.228;2022-07-23T06:20:56;20.60;75.00
49579;DHT22;35483;50.828;3.228;2022-07-23T06:23:22;20.70;75.00
49579;DHT22;35483;50.828;3.228;2022-07-23T06:25:48;20.80;75.00
49579;DHT22;35483;50.828;3.228;2022-07-23T06:28:13;20.90;74.90
49579;DHT22;35483;50.828;3.228;2022-07-23T06:30:39;21.00;74.80
49579;DHT22;35483;50.828;3.228;2022-07-23T06:33:05;21.30;74.70
49579;DHT22;35483;50.828;3.228;2022-07-23T06:35:32;21.50;74.40
49579;DHT22;35483;50.828;3.228;2022-07-23T06:37:59;21.50;74.30
49579;DHT22;35483;50.828;3.228;2022-07-23T06:40:24;21.60;74.40
49579;DHT22;35483;50.828;3.228;2022-07-23T06:42:51;21.60;74.40
49579;DHT22;35483;50.828;3.228;2022-07-23T06:45:17;21.50;74.50
49579;DHT22;35483;50.828;3.228;2022-07-23T06:47:43;21.60;74.50
49579;DHT22;35483;50.828;3.228;2022-07-23T06:50:10;21.60;74.40
49579;DHT22;35483;50.828;3.228;2022-07-23T06:52:36;21.70;74.40
49579;DHT22;35483;50.828;3.228;2022-07-23T06:55:02;21.70;74.40
49579;DHT22;35483;50.828;3.228;2022-07-23T06:57:27;21.80;74.20
49579;DHT22;35483;50.828;3.228;2022-07-23T06:59:53;21.80;74.10
49579;DHT22;35483;50.828;3.228;2022-07-23T07:02:19;21.90;74.00
49579;DHT22;35483;50.828;3.228;2022-07-23T07:04:45;22.00;74.20
49579;DHT22;35483;50.828;3.228;2022-07-23T07:07:10;22.00;74.10
49579;DHT22;35483;50.828;3.228;2022-07-23T07:09:38;22.10;74.00
49579;DHT22;35483;50.828;3.228;2022-07-23T07:12:04;22.20;74.00
49579;DHT22;35483;50.828;3.228;2022-07-23T07:14:30;22.30;73.90
49579;DHT22;35483;50.828;3.228;2022-07-23T07:16:55;22.40;73.80
49579;DHT22;35483;50.828;3.228;2022-07-23T07:19:23;22.40;73.70
49579;DHT22;35483;50.828;3.228;2022-07-23T07:21:49;22.50;73.40
49579;DHT22;35483;50.828;3.228;2022-07-23T07:24:16;22.70;73.30
49579;DHT22;35483;50.828;3.228;2022-07-23T07:26:43;22.70;73.30
49579;DHT22;35483;50.828;3.228;2022-07-23T07:29:09;22.70;73.30
49579;DHT22;35483;50.828;3.228;2022-07-23T07:31:34;22.70;74.00
49579;DHT22;35483;50.828;3.228;2022-07-23T07:34:00;22.80;73.90
49579;DHT22;35483;50.828;3.228;2022-07-23T07:36:26;22.80;73.20
49579;DHT22;35483;50.828;3.228;2022-07-23T07:38:51;22.90;73.10
49579;DHT22;35483;50.828;3.228;2022-07-23T07:41:17;23.00;73.00
49579;DHT22;35483;50.828;3.228;2022-07-23T07:43:48;23.10;72.90
49579;DHT22;35483;50.828;3.228;2022-07-23T07:46:15;23.20;72.70
49579;DHT22;35483;50.828;3.228;2022-07-23T07:48:43;23.30;72.50
49579;DHT22;35483;50.828;3.228;2022-07-23T07:51:09;23.40;72.50
49579;DHT22;35483;50.828;3.228;2022-07-23T07:53:36;23.40;72.50
49579;DHT22;35483;50.828;3.228;2022-07-23T07:56:02;23.40;72.20
49579;DHT22;35483;50.828;3.228;2022-07-23T07:58:32;23.40;72.40
49579;DHT22;35483;50.828;3.228;2022-07-23T08:01:00;23.40;72.20
49579;DHT22;35483;50.828;3.228;2022-07-23T08:03:28;23.50;72.40
49579;DHT22;35483;50.828;3.228;2022-07-23T08:05:53;23.60;72.30
49579;DHT22;35483;50.828;3.228;2022-07-23T08:08:21;23.70;72.20
49579;DHT22;35483;50.828;3.228;2022-07-23T08:10:46;23.80;72.20
49579;DHT22;35483;50.828;3.228;2022-07-23T08:13:15;23.90;72.00
49579;DHT22;35483;50.828;3.228;2022-07-23T08:15:42;23.90;72.00
49579;DHT22;35483;50.828;3.228;2022-07-23T08:18:09;24.00;72.20
49579;DHT22;35483;50.828;3.228;2022-07-23T08:20:37;24.00;71.90
49579;DHT22;35483;50.828;3.228;2022-07-23T08:23:05;24.10;71.70
49579;DHT22;35483;50.828;3.228;2022-07-23T08:25:42;24.00;71.70
49579;DHT22;35483;50.828;3.228;2022-07-23T08:28:12;23.90;71.80
49579;DHT22;35483;50.828;3.228;2022-07-23T08:30:40;23.80;71.80
49579;DHT22;35483;50.828;3.228;2022-07-23T08:33:13;23.70;72.20
49579;DHT22;35483;50.828;3.228;2022-07-23T08:35:45;23.60;72.00
49579;DHT22;35483;50.828;3.228;2022-07-23T08:38:14;23.50;72.10
49579;DHT22;35483;50.828;3.228;2022-07-23T08:40:45;23.40;72.50
49579;DHT22;35483;50.828;3.228;2022-07-23T08:43:16;23.30;72.40
49579;DHT22;35483;50.828;3.228;2022-07-23T08:45:45;23.20;72.40
49579;DHT22;35483;50.828;3.228;2022-07-23T08:48:16;23.20;72.80
49579;DHT22;35483;50.828;3.228;2022-07-23T08:50:56;23.10;72.80
49579;DHT22;35483;50.828;3.228;2022-07-23T08:53:23;23.00;72.70
49579;DHT22;35483;50.828;3.228;2022-07-23T08:55:53;23.00;73.00
49579;DHT22;35483;50.828;3.228;2022-07-23T08:58:20;23.00;72.90
49579;DHT22;35483;50.828;3.228;2022-07-23T09:00:46;23.10;72.70
49579;DHT22;35483;50.828;3.228;2022-07-23T09:03:22;23.10;72.50
49579;DHT22;35483;50.828;3.228;2022-07-23T09:05:52;23.10;71.30
49579;DHT22;35483;50.828;3.228;2022-07-23T09:08:24;23.10;72.20
49579;DHT22;35483;50.828;3.228;2022-07-23T09:10:54;23.10;72.30
49579;DHT22;35483;50.828;3.228;2022-07-23T09:13:53;23.20;72.30
49579;DHT22;35483;50.828;3.228;2022-07-23T09:16:24;23.30;70.90
49579;DHT22;35483;50.828;3.228;2022-07-23T09:19:05;23.30;72.00
49579;DHT22;35483;50.828;3.228;2022-07-23T09:21:35;23.40;71.40
49579;DHT22;35483;50.828;3.228;2022-07-23T09:24:09;23.50;71.60
49579;DHT22;35483;50.828;3.228;2022-07-23T09:26:42;23.60;71.60
49579;DHT22;35483;50.828;3.228;2022-07-23T09:29:21;23.60;70.90
49579;DHT22;35483;50.828;3.228;2022-07-23T09:31:57;23.70;71.50
49579;DHT22;35483;50.828;3.228;2022-07-23T09:34:33;23.90;71.30
49579;DHT22;35483;50.828;3.228;2022-07-23T09:37:12;24.20;71.10
49579;DHT22;35483;50.828;3.228;2022-07-23T09:39:40;24.30;70.80
49579;DHT22;35483;50.828;3.228;2022-07-23T09:42:14;24.30;71.00
49579;DHT22;35483;50.828;3.228;2022-07-23T09:44:50;24.30;69.90
49579;DHT22;35483;50.828;3.228;2022-07-23T09:47:17;24.30;70.90
49579;DHT22;35483;50.828;3.228;2022-07-23T09:50:06;24.30;71.20
49579;DHT22;35483;50.828;3.228;2022-07-23T09:52:41;24.30;70.10
49579;DHT22;35483;50.828;3.228;2022-07-23T09:55:08;24.20;70.80
49579;DHT22;35483;50.828;3.228;2022-07-23T09:57:34;24.20;70.90
49579;DHT22;35483;50.828;3.228;2022-07-23T10:00:07;24.30;71.20
49579;DHT22;35483;50.828;3.228;2022-07-23T10:02:38;24.40;70.70
49579;DHT22;35483;50.828;3.228;2022-07-23T10:05:04;24.60;70.90
49579;DHT22;35483;50.828;3.228;2022-07-23T10:07:34;24.60;70.70
49579;DHT22;35483;50.828;3.228;2022-07-23T10:10:03;24.70;70.40
49579;DHT22;35483;50.828;3.228;2022-07-23T10:12:29;24.70;70.40
49579;DHT22;35483;50.828;3.228;2022-07-23T10:15:08;24.70;70.40
49579;DHT22;35483;50.828;3.228;2022-07-23T10:17:35;24.70;70.50
49579;DHT22;35483;50.828;3.228;2022-07-23T10:20:02;24.80;70.40
49579;DHT22;35483;50.828;3.228;2022-07-23T10:22:31;24.90;70.30
49579;DHT22;35483;50.828;3.228;2022-07-23T10:26:11;25.10;70.20
49579;DHT22;35483;50.828;3.228;2022-07-23T10:37:01;26.40;65.30
49579;DHT22;35483;50.828;3.228;2022-07-23T10:39:34;26.50;63.20
49579;DHT22;35483;50.828;3.228;2022-07-23T10:42:12;26.50;66.00
49579;DHT22;35483;50.828;3.228;2022-07-23T10:44:47;26.40;66.90
49579;DHT22;35483;50.828;3.228;2022-07-23T10:47:27;26.20;66.00
49579;DHT22;35483;50.828;3.228;2022-07-23T10:50:19;26.00;62.30
49579;DHT22;35483;50.828;3.228;2022-07-23T10:53:09;25.80;64.40
49579;DHT22;35483;50.828;3.228;2022-07-23T10:55:44;25.70;64.50
49579;DHT22;35483;50.828;3.228;2022-07-23T10:58:10;25.60;68.10
49579;DHT22;35483;50.828;3.228;2022-07-23T11:00:38;25.60;69.40
49579;DHT22;35483;50.828;3.228;2022-07-23T11:03:29;25.50;69.10
49579;DHT22;35483;50.828;3.228;2022-07-23T11:05:55;25.40;61.90
49579;DHT22;35483;50.828;3.228;2022-07-23T11:08:21;25.30;69.10
49579;DHT22;35483;50.828;3.228;2022-07-23T11:11:08;25.30;69.30
49579;DHT22;35483;50.828;3.228;2022-07-23T11:13:41;25.20;64.80
49579;DHT22;35483;50.828;3.228;2022-07-23T11:16:12;25.20;67.80
49579;DHT22;35483;50.828;3.228;2022-07-23T11:24:11;25.40;67.70
49579;DHT22;35483;50.828;3.228;2022-07-23T11:32:27;25.80;68.40
49579;DHT22;35483;50.828;3.228;2022-07-23T11:34:54;25.80;68.50
49579;DHT22;35483;50.828;3.228;2022-07-23T11:37:49;25.80;68.20
49579;DHT22;35483;50.828;3.228;2022-07-23T11:40:20;25.90;64.70
49579;DHT22;35483;50.828;3.228;2022-07-23T11:42:57;26.00;68.40
49579;DHT22;35483;50.828;3.228;2022-07-23T11:45:39;26.10;64.30
49579;DHT22;35483;50.828;3.228;2022-07-23T11:48:08;26.20;67.40
49579;DHT22;35483;50.828;3.228;2022-07-23T11:50:37;26.30;68.10
49579;DHT22;35483;50.828;3.228;2022-07-23T11:53:04;26.40;67.00
49579;DHT22;35483;50.828;3.228;2022-07-23T11:55:30;26.60;67.50
49579;DHT22;35483;50.828;3.228;2022-07-23T11:57:56;26.70;67.60
49579;DHT22;35483;50.828;3.228;2022-07-23T12:00:24;26.70;67.60
49579;DHT22;35483;50.828;3.228;2022-07-23T12:02:59;26.80;67.60
49579;DHT22;35483;50.828;3.228;2022-07-23T12:05:37;26.90;64.40
49579;DHT22;35483;50.828;3.228;2022-07-23T12:08:08;26.90;66.50
49579;DHT22;35483;50.828;3.228;2022-07-23T12:10:43;26.90;63.20
49579;DHT22;35483;50.828;3.228;2022-07-23T12:13:20;26.80;66.70
49579;DHT22;35483;50.828;3.228;2022-07-23T12:15:56;27.00;67.70
49579;DHT22;35483;50.828;3.228;2022-07-23T12:18:25;27.20;63.00
49579;DHT22;35483;50.828;3.228;2022-07-23T12:20:54;27.30;67.30
49579;DHT22;35483;50.828;3.228;2022-07-23T12:23:25;27.50;67.00
49579;DHT22;35483;50.828;3.228;2022-07-23T12:25:51;27.70;67.10
49579;DHT22;35483;50.828;3.228;2022-07-23T12:28:27;27.70;67.00
49579;DHT22;35483;50.828;3.228;2022-07-23T12:30:56;27.80;65.50
49579;DHT22;35483;50.828;3.228;2022-07-23T12:33:34;27.90;66.60
49579;DHT22;35483;50.828;3.228;2022-07-23T12:36:02;27.90;66.40
49579;DHT22;35483;50.828;3.228;2022-07-23T12:38:48;27.90;66.50
49579;DHT22;35483;50.828;3.228;2022-07-23T12:41:16;27.90;63.60
49579;DHT22;35483;50.828;3.228;2022-07-23T12:43:46;27.90;65.70
49579;DHT22;35483;50.828;3.228;2022-07-23T12:46:21;28.00;66.90
49579;DHT22;35483;50.828;3.228;2022-07-23T12:51:17;28.20;66.60
49579;DHT22;35483;50.828;3.228;2022-07-23T12:53:51;28.20;66.20
49579;DHT22;35483;50.828;3.228;2022-07-23T12:56:32;28.30;66.00
49579;DHT22;35483;50.828;3.228;2022-07-23T12:59:05;28.30;64.00
49579;DHT22;35483;50.828;3.228;2022-07-23T13:01:40;28.40;65.10
49579;DHT22;35483;50.828;3.228;2022-07-23T13:04:09;28.40;65.40
49579;DHT22;35483;50.828;3.228;2022-07-23T13:06:37;28.40;65.40
49579;DHT22;35483;50.828;3.228;2022-07-23T13:09:07;28.50;65.60
49579;DHT22;35483;50.828;3.228;2022-07-23T13:11:33;28.60;65.50
49579;DHT22;35483;50.828;3.228;2022-07-23T13:14:00;28.70;65.60
49579;DHT22;35483;50.828;3.228;2022-07-23T13:16:27;28.60;65.40
49579;DHT22;35483;50.828;3.228;2022-07-23T13:18:53;28.40;65.70
49579;DHT22;35483;50.828;3.228;2022-07-23T13:21:19;28.20;65.80
49579;DHT22;35483;50.828;3.228;2022-07-23T13:23:46;28.20;66.10
49579;DHT22;35483;50.828;3.228;2022-07-23T13:26:11;28.10;65.70
49579;DHT22;35483;50.828;3.228;2022-07-23T13:28:38;28.10;65.90
49579;DHT22;35483;50.828;3.228;2022-07-23T13:31:04;28.20;65.50
49579;DHT22;35483;50.828;3.228;2022-07-23T13:33:30;28.30;65.70
49579;DHT22;35483;50.828;3.228;2022-07-23T13:35:56;28.30;65.50
49579;DHT22;35483;50.828;3.228;2022-07-23T13:38:23;28.40;65.60
49579;DHT22;35483;50.828;3.228;2022-07-23T13:40:50;28.40;65.30
49579;DHT22;35483;50.828;3.228;2022-07-23T13:43:19;28.50;65.30
49579;DHT22;35483;50.828;3.228;2022-07-23T13:45:45;28.50;65.00
49579;DHT22;35483;50.828;3.228;2022-07-23T13:48:12;28.50;65.40
49579;DHT22;35483;50.828;3.228;2022-07-23T13:50:41;28.60;65.30
49579;DHT22;35483;50.828;3.228;2022-07-23T13:53:11;28.60;64.80
49579;DHT22;35483;50.828;3.228;2022-07-23T13:55:38;28.60;64.90
49579;DHT22;35483;50.828;3.228;2022-07-23T13:58:07;28.80;65.10
49579;DHT22;35483;50.828;3.228;2022-07-23T14:00:35;28.80;64.90
49579;DHT22;35483;50.828;3.228;2022-07-23T14:03:03;28.90;64.90
49579;DHT22;35483;50.828;3.228;2022-07-23T14:05:28;29.00;65.40
49579;DHT22;35483;50.828;3.228;2022-07-23T14:07:54;29.10;64.80
49579;DHT22;35483;50.828;3.228;2022-07-23T14:10:21;29.20;64.30
49579;DHT22;35483;50.828;3.228;2022-07-23T14:12:49;29.20;64.20
49579;DHT22;35483;50.828;3.228;2022-07-23T14:15:19;29.30;64.30
49579;DHT22;35483;50.828;3.228;2022-07-23T14:17:46;29.30;63.90
49579;DHT22;35483;50.828;3.228;2022-07-23T14:20:13;29.20;63.70
49579;DHT22;35483;50.828;3.228;2022-07-23T14:22:40;29.00;64.20
49579;DHT22;35483;50.828;3.228;2022-07-23T14:25:08;28.90;63.80
49579;DHT22;35483;50.828;3.228;2022-07-23T14:27:35;28.80;64.40
49579;DHT22;35483;50.828;3.228;2022-07-23T14:30:04;28.80;64.20
49579;DHT22;35483;50.828;3.228;2022-07-23T14:32:31;28.80;64.40
49579;DHT22;35483;50.828;3.228;2022-07-23T14:34:57;28.80;64.20
49579;DHT22;35483;50.828;3.228;2022-07-23T14:37:23;28.90;64.40
49579;DHT22;35483;50.828;3.228;2022-07-23T14:39:51;28.90;64.40
49579;DHT22;35483;50.828;3.228;2022-07-23T14:42:17;28.90;64.20
49579;DHT22;35483;50.828;3.228;2022-07-23T14:44:44;28.90;64.20
49579;DHT22;35483;50.828;3.228;2022-07-23T14:47:11;28.90;63.90
49579;DHT22;35483;50.828;3.228;2022-07-23T14:49:37;28.90;64.10
49579;DHT22;35483;50.828;3.228;2022-07-23T14:52:06;28.80;64.00
49579;DHT22;35483;50.828;3.228;2022-07-23T14:54:32;28.70;63.00
49579;DHT22;35483;50.828;3.228;2022-07-23T14:56:58;28.70;64.50
49579;DHT22;35483;50.828;3.228;2022-07-23T14:59:26;28.60;64.20
49579;DHT22;35483;50.828;3.228;2022-07-23T15:01:54;28.70;64.10
49579;DHT22;35483;50.828;3.228;2022-07-23T15:04:20;28.80;63.40
49579;DHT22;35483;50.828;3.228;2022-07-23T15:06:46;28.80;64.10
49579;DHT22;35483;50.828;3.228;2022-07-23T15:09:12;28.80;64.00
49579;DHT22;35483;50.828;3.228;2022-07-23T15:11:41;28.70;64.10
49579;DHT22;35483;50.828;3.228;2022-07-23T15:14:08;28.60;63.80
49579;DHT22;35483;50.828;3.228;2022-07-23T15:16:34;28.50;64.10
49579;DHT22;35483;50.828;3.228;2022-07-23T15:19:02;28.40;64.30
49579;DHT22;35483;50.828;3.228;2022-07-23T15:21:28;28.40;64.00
49579;DHT22;35483;50.828;3.228;2022-07-23T15:23:56;28.30;64.00
49579;DHT22;35483;50.828;3.228;2022-07-23T15:26:27;28.40;63.80
49579;DHT22;35483;50.828;3.228;2022-07-23T15:28:54;28.40;63.90
49579;DHT22;35483;50.828;3.228;2022-07-23T15:31:20;28.50;64.10
49579;DHT22;35483;50.828;3.228;2022-07-23T15:33:46;28.60;64.00
49579;DHT22;35483;50.828;3.228;2022-07-23T15:36:11;28.60;63.50
49579;DHT22;35483;50.828;3.228;2022-07-23T15:38:38;28.50;63.30
49579;DHT22;35483;50.828;3.228;2022-07-23T15:41:04;28.40;63.90
49579;DHT22;35483;50.828;3.228;2022-07-23T15:43:30;28.50;63.90
49579;DHT22;35483;50.828;3.228;2022-07-23T15:45:56;28.50;63.90
49579;DHT22;35483;50.828;3.228;2022-07-23T15:48:22;28.50;63.70
49579;DHT22;35483;50.828;3.228;2022-07-23T15:50:50;28.60;63.80
49579;DHT22;35483;50.828;3.228;2022-07-23T15:53:16;28.60;63.50
49579;DHT22;35483;50.828;3.228;2022-07-23T15:55:44;28.60;64.20
49579;DHT22;35483;50.828;3.228;2022-07-23T15:58:11;28.70;62.80
49579;DHT22;35483;50.828;3.228;2022-07-23T16:00:38;28.80;63.70